Time;durP1;ratioP1;P1;durP2;ratioP2;P2;SDS_P1;SDS_P2;PMS_P1;PMS_P2;Temp;Humidity;BMP_temperature;BMP_pressure;BME280_temperature;BME280_humidity;BME280_pressure;Samples;Min_cycle;Max_cycle;Signal;HPM_P1;HPM_P2
2023/07/19 00:00:12;;;;;;;0.00;0.00;;;18.50;99.90;;;;;;5027309;28;20057;-68
2023/07/19 00:02:38;;;;;;;0.00;0.00;;;18.40;99.90;;;;;;5024676;28;20041;-68
2023/07/19 00:05:04;;;;;;;0.10;0.10;;;18.40;99.90;;;;;;5023515;28;20492;-68
2023/07/19 00:07:30;;;;;;;0.03;0.03;;;18.30;99.90;;;;;;5022682;28;20401;-68
2023/07/19 00:09:55;;;;;;;1.08;0.22;;;18.40;99.90;;;;;;5019646;28;20044;-68
2023/07/19 00:12:21;;;;;;;0.05;0.05;;;18.40;99.90;;;;;;5018697;28;20125;-68
2023/07/19 00:14:47;;;;;;;0.00;0.00;;;18.30;99.90;;;;;;5030336;28;20048;-68
2023/07/19 00:17:12;;;;;;;0.82;0.25;;;18.20;99.90;;;;;;5019674;28;20808;-68
2023/07/19 00:19:38;;;;;;;0.40;0.40;;;18.30;99.90;;;;;;5026465;28;20083;-68
2023/07/19 00:22:04;;;;;;;1.50;0.22;;;18.30;99.90;;;;;;5016937;28;20132;-68
2023/07/19 00:24:29;;;;;;;0.03;0.03;;;18.30;99.90;;;;;;5027885;28;20040;-68
2023/07/19 00:26:56;;;;;;;0.00;0.00;;;18.20;99.90;;;;;;5026562;28;20034;-68
2023/07/19 00:29:21;;;;;;;0.00;0.00;;;18.20;99.90;;;;;;5019240;28;20053;-68
2023/07/19 00:31:47;;;;;;;0.10;0.10;;;18.10;99.90;;;;;;5031494;28;20520;-68
2023/07/19 00:34:13;;;;;;;0.00;0.00;;;18.10;99.90;;;;;;5022024;28;20050;-68
2023/07/19 00:36:38;;;;;;;0.00;0.00;;;18.00;99.90;;;;;;5026876;28;20052;-68
2023/07/19 00:39:04;;;;;;;0.03;0.03;;;18.00;99.90;;;;;;5022522;28;20045;-69
2023/07/19 00:41:30;;;;;;;0.15;0.15;;;18.00;99.90;;;;;;5020917;28;20037;-67
2023/07/19 00:43:55;;;;;;;0.10;0.10;;;17.90;99.90;;;;;;5022645;28;20116;-68
2023/07/19 00:46:21;;;;;;;0.47;0.45;;;17.90;99.90;;;;;;5025426;28;20052;-68
2023/07/19 00:48:47;;;;;;;0.00;0.00;;;17.90;99.90;;;;;;5020324;28;21681;-68
2023/07/19 00:51:13;;;;;;;0.00;0.00;;;17.80;99.90;;;;;;5023409;28;20045;-68
2023/07/19 00:53:39;;;;;;;0.03;0.03;;;17.80;99.90;;;;;;5021516;28;20029;-69
2023/07/19 00:56:07;;;;;;;0.00;0.00;;;17.80;99.90;;;;;;5021192;28;20053;-69
2023/07/19 00:58:34;;;;;;;0.00;0.00;;;17.80;99.90;;;;;;5017797;28;20038;-69
2023/07/19 01:01:01;;;;;;;0.55;0.47;;;17.80;99.90;;;;;;5028862;28;20436;-69
2023/07/19 01:03:27;;;;;;;0.00;0.00;;;17.80;99.90;;;;;;5022834;28;20087;-68
2023/07/19 01:05:52;;;;;;;0.30;0.30;;;17.70;99.90;;;;;;5019720;28;20033;-69
2023/07/19 01:08:18;;;;;;;0.08;0.08;;;17.80;99.90;;;;;;5022198;28;20508;-68
2023/07/19 01:10:45;;;;;;;0.15;0.15;;;17.80;99.90;;;;;;5016567;28;20081;-68
2023/07/19 01:13:12;;;;;;;0.00;0.00;;;17.80;99.90;;;;;;5020648;28;20046;-69
2023/07/19 01:15:40;;;;;;;0.15;0.15;;;17.80;99.90;;;;;;5023926;28;20038;-69
2023/07/19 01:18:06;;;;;;;0.00;0.00;;;17.70;99.90;;;;;;5017140;28;20049;-68
2023/07/19 01:20:33;;;;;;;0.00;0.00;;;17.70;99.90;;;;;;5021980;28;20046;-68
2023/07/19 01:22:58;;;;;;;1.13;0.98;;;17.70;99.90;;;;;;5018719;28;20060;-68
2023/07/19 01:25:24;;;;;;;0.50;0.50;;;17.70;99.90;;;;;;5024021;28;20045;-68
2023/07/19 01:27:50;;;;;;;0.00;0.00;;;17.60;99.90;;;;;;5020258;28;20042;-68
2023/07/19 01:30:16;;;;;;;0.40;0.40;;;17.60;99.90;;;;;;5027576;28;20046;-68
2023/07/19 01:32:42;;;;;;;0.00;0.00;;;17.60;99.90;;;;;;5030921;28;20525;-68
2023/07/19 01:35:08;;;;;;;0.00;0.00;;;17.60;99.90;;;;;;5021052;28;20041;-68
2023/07/19 01:37:34;;;;;;;0.10;0.10;;;17.60;99.90;;;;;;5024474;28;20111;-69
2023/07/19 01:40:01;;;;;;;0.10;0.10;;;17.50;99.90;;;;;;5023077;28;20046;-69
2023/07/19 01:42:26;;;;;;;0.00;0.00;;;17.50;99.90;;;;;;5011684;28;20033;-69
2023/07/19 01:44:53;;;;;;;0.00;0.00;;;17.60;99.90;;;;;;5020165;28;20417;-69
2023/07/19 01:47:19;;;;;;;0.35;0.35;;;17.50;99.90;;;;;;5025758;28;20053;-69
2023/07/19 01:49:45;;;;;;;0.00;0.00;;;17.40;99.90;;;;;;5023383;28;20044;-68
2023/07/19 01:52:10;;;;;;;0.00;0.00;;;17.50;99.90;;;;;;5020483;28;20045;-69
2023/07/19 01:54:36;;;;;;;0.15;0.15;;;17.40;99.90;;;;;;5024448;28;20512;-69
2023/07/19 01:57:02;;;;;;;5.18;0.32;;;17.40;99.90;;;;;;5027267;28;20148;-69
2023/07/19 01:59:28;;;;;;;0.05;0.05;;;17.30;99.90;;;;;;5018377;28;20088;-69
2023/07/19 02:01:53;;;;;;;0.20;0.20;;;17.30;99.90;;;;;;5026110;28;20037;-69
2023/07/19 02:04:19;;;;;;;0.20;0.13;;;17.20;99.90;;;;;;5024857;28;20402;-69
2023/07/19 02:06:45;;;;;;;0.52;0.52;;;17.20;99.90;;;;;;5017460;28;20034;-69
2023/07/19 02:09:11;;;;;;;0.15;0.15;;;17.20;99.90;;;;;;5024554;28;20528;-69
2023/07/19 02:11:37;;;;;;;0.20;0.20;;;17.20;99.90;;;;;;5022655;28;20095;-69
2023/07/19 02:14:03;;;;;;;0.00;0.00;;;17.10;99.90;;;;;;5019535;28;20037;-69
2023/07/19 02:16:28;;;;;;;0.00;0.00;;;17.10;99.90;;;;;;5024008;28;20403;-69
2023/07/19 02:18:54;;;;;;;0.28;0.22;;;17.10;99.90;;;;;;5019004;28;20038;-69
2023/07/19 02:21:20;;;;;;;0.10;0.03;;;17.10;99.90;;;;;;5025073;28;20045;-69
2023/07/19 02:23:45;;;;;;;0.22;0.22;;;17.20;99.90;;;;;;5025062;28;20116;-69
2023/07/19 02:26:11;;;;;;;0.00;0.00;;;17.20;99.90;;;;;;5024349;28;20046;-69
2023/07/19 02:28:37;;;;;;;0.30;0.30;;;17.20;99.90;;;;;;5015842;28;20061;-69
2023/07/19 02:31:03;;;;;;;0.52;0.40;;;17.10;99.90;;;;;;5026374;28;20053;-69
2023/07/19 02:33:29;;;;;;;0.60;0.60;;;17.00;99.90;;;;;;5033764;28;20404;-69
2023/07/19 02:35:55;;;;;;;0.10;0.10;;;17.00;99.90;;;;;;5018531;28;20072;-69
2023/07/19 02:38:22;;;;;;;0.00;0.00;;;17.10;99.90;;;;;;5024099;28;20045;-69
2023/07/19 02:40:47;;;;;;;0.40;0.40;;;17.10;99.90;;;;;;5018076;28;20095;-69
2023/07/19 02:43:13;;;;;;;0.05;0.05;;;17.10;99.90;;;;;;5027537;28;20428;-69
2023/07/19 02:45:39;;;;;;;0.20;0.20;;;17.10;99.90;;;;;;5027243;28;20467;-69
2023/07/19 02:48:05;;;;;;;0.00;0.00;;;17.10;99.90;;;;;;5023102;28;20559;-69
2023/07/19 02:50:31;;;;;;;0.00;0.00;;;17.00;99.90;;;;;;5018081;28;20652;-69
2023/07/19 02:52:57;;;;;;;0.52;0.30;;;17.10;99.90;;;;;;5020274;28;20046;-69
2023/07/19 02:55:23;;;;;;;0.08;0.08;;;17.10;99.90;;;;;;5021105;28;20497;-69
2023/07/19 02:57:48;;;;;;;0.47;0.40;;;17.20;99.90;;;;;;5014293;28;20042;-69
2023/07/19 03:00:14;;;;;;;0.13;0.03;;;17.10;99.90;;;;;;5023247;28;20050;-69
2023/07/19 03:02:40;;;;;;;0.57;0.57;;;17.10;99.90;;;;;;5016845;28;20397;-69
2023/07/19 03:05:06;;;;;;;0.17;0.17;;;17.10;99.90;;;;;;5021017;28;20057;-69
2023/07/19 03:07:32;;;;;;;0.10;0.10;;;17.10;99.90;;;;;;5019846;28;20073;-69
2023/07/19 03:09:58;;;;;;;0.35;0.35;;;17.10;99.90;;;;;;5026769;28;20045;-69
2023/07/19 03:12:24;;;;;;;0.13;0.13;;;17.10;99.90;;;;;;5022243;28;20052;-69
2023/07/19 03:14:50;;;;;;;0.45;0.40;;;17.10;99.90;;;;;;5026417;28;20413;-69
2023/07/19 03:17:15;;;;;;;0.00;0.00;;;17.10;99.90;;;;;;5016688;28;20111;-69
2023/07/19 03:19:41;;;;;;;1.30;0.40;;;17.10;99.90;;;;;;5028638;28;20034;-69
2023/07/19 03:22:07;;;;;;;0.22;0.22;;;17.10;99.90;;;;;;5027336;28;20133;-69
2023/07/19 03:24:33;;;;;;;0.05;0.05;;;17.00;99.90;;;;;;5022001;28;20049;-68
2023/07/19 03:26:59;;;;;;;1.75;0.47;;;17.10;99.90;;;;;;5018234;28;20042;-69
2023/07/19 03:29:24;;;;;;;0.00;0.00;;;17.00;99.90;;;;;;5029672;28;20046;-69
2023/07/19 03:31:50;;;;;;;0.47;0.38;;;17.00;99.90;;;;;;5027602;28;20058;-69
2023/07/19 03:34:15;;;;;;;0.00;0.00;;;17.00;99.90;;;;;;5021371;28;20509;-69
2023/07/19 03:36:41;;;;;;;0.80;0.35;;;16.90;99.90;;;;;;5027375;28;20083;-69
2023/07/19 03:39:07;;;;;;;0.13;0.13;;;17.00;99.90;;;;;;5022683;28;20068;-69
2023/07/19 03:41:32;;;;;;;0.13;0.10;;;17.00;99.90;;;;;;5023179;28;20107;-69
2023/07/19 03:43:58;;;;;;;0.10;0.10;;;17.00;99.90;;;;;;5018004;28;20033;-68
2023/07/19 03:46:24;;;;;;;0.45;0.20;;;17.00;99.90;;;;;;5026390;28;20406;-69
2023/07/19 03:48:49;;;;;;;0.08;0.08;;;17.00;99.90;;;;;;5016561;28;20112;-69
2023/07/19 03:51:15;;;;;;;0.17;0.17;;;17.00;99.90;;;;;;5024202;28;20046;-69
2023/07/19 03:53:40;;;;;;;0.00;0.00;;;16.90;99.90;;;;;;5026143;28;20046;-69
2023/07/19 03:56:06;;;;;;;5.82;1.08;;;16.90;99.90;;;;;;5022662;28;20060;-68
2023/07/19 03:58:32;;;;;;;0.15;0.15;;;16.90;99.90;;;;;;5018268;28;20425;-69
2023/07/19 04:00:58;;;;;;;0.15;0.15;;;17.00;99.90;;;;;;5029289;28;20043;-69
2023/07/19 04:03:25;;;;;;;0.10;0.10;;;16.90;99.90;;;;;;5026692;28;20401;-68
2023/07/19 04:05:53;;;;;;;0.30;0.30;;;16.90;99.90;;;;;;5018320;28;20049;-68
2023/07/19 04:08:18;;;;;;;0.00;0.00;;;16.90;99.90;;;;;;5025696;28;20053;-69
2023/07/19 04:10:44;;;;;;;0.00;0.00;;;16.90;99.90;;;;;;5021266;28;20049;-68
2023/07/19 04:13:11;;;;;;;0.10;0.10;;;16.90;99.90;;;;;;5022170;28;20575;-69
2023/07/19 04:15:36;;;;;;;0.28;0.25;;;16.90;99.90;;;;;;5025627;28;20059;-68
2023/07/19 04:18:03;;;;;;;0.00;0.00;;;17.00;99.90;;;;;;5016003;28;20064;-68
2023/07/19 04:20:29;;;;;;;0.00;0.00;;;17.00;99.90;;;;;;5021125;28;20438;-69
2023/07/19 04:22:55;;;;;;;0.05;0.05;;;16.90;99.90;;;;;;5022649;28;20069;-69
2023/07/19 04:25:21;;;;;;;0.10;0.10;;;16.90;99.90;;;;;;5021415;28;20045;-69
2023/07/19 04:27:47;;;;;;;0.20;0.20;;;16.90;99.90;;;;;;5021711;28;20041;-69
2023/07/19 04:30:13;;;;;;;0.00;0.00;;;17.00;99.90;;;;;;5021629;28;20029;-69
2023/07/19 04:32:39;;;;;;;0.00;0.00;;;17.00;99.90;;;;;;5028341;28;20053;-69
2023/07/19 04:35:08;;;;;;;0.00;0.00;;;17.00;99.90;;;;;;5031923;28;20092;-69
2023/07/19 04:37:35;;;;;;;0.00;0.00;;;17.00;99.90;;;;;;5016054;28;20053;-68
2023/07/19 04:40:00;;;;;;;0.30;0.30;;;17.00;99.90;;;;;;5023887;28;20091;-69
2023/07/19 04:42:28;;;;;;;0.00;0.00;;;17.00;99.90;;;;;;5022512;28;20050;-68
2023/07/19 04:44:53;;;;;;;0.00;0.00;;;17.00;99.90;;;;;;5021845;28;20856;-69
2023/07/19 04:47:19;;;;;;;0.00;0.00;;;17.00;99.90;;;;;;5021517;28;20049;-68
2023/07/19 04:49:45;;;;;;;0.20;0.20;;;17.10;99.90;;;;;;5025169;28;20042;-69
2023/07/19 04:52:11;;;;;;;0.13;0.13;;;17.10;99.90;;;;;;5026445;28;20053;-69
2023/07/19 04:54:36;;;;;;;2.47;0.57;;;17.10;99.90;;;;;;5017645;28;20073;-69
2023/07/19 04:57:02;;;;;;;0.10;0.10;;;17.10;99.90;;;;;;5022198;28;20077;-69
2023/07/19 04:59:28;;;;;;;0.00;0.00;;;17.20;99.90;;;;;;5016708;28;20120;-69
2023/07/19 05:01:53;;;;;;;0.00;0.00;;;17.10;99.90;;;;;;5026309;28;20386;-69
2023/07/19 05:04:20;;;;;;;0.35;0.20;;;17.10;99.90;;;;;;5026251;28;20161;-69
2023/07/19 05:06:46;;;;;;;0.00;0.00;;;17.20;99.90;;;;;;5021229;28;20559;-69
2023/07/19 05:09:11;;;;;;;0.00;0.00;;;17.20;99.90;;;;;;5014944;28;20049;-69
2023/07/19 05:11:37;;;;;;;0.00;0.00;;;17.10;99.90;;;;;;5023241;28;20041;-69
2023/07/19 05:14:04;;;;;;;0.00;0.00;;;17.10;99.90;;;;;;5021373;28;20112;-69
2023/07/19 05:16:29;;;;;;;3.13;0.90;;;17.10;99.90;;;;;;5027686;28;20117;-69
2023/07/19 05:18:55;;;;;;;0.00;0.00;;;17.10;99.90;;;;;;5023119;28;20038;-69
2023/07/19 05:21:21;;;;;;;0.15;0.15;;;17.10;99.90;;;;;;5021518;28;20452;-69
2023/07/19 05:23:48;;;;;;;0.05;0.05;;;17.10;99.90;;;;;;5025641;28;20080;-69
2023/07/19 05:26:14;;;;;;;0.00;0.00;;;17.00;99.90;;;;;;5018324;28;20502;-69
2023/07/19 05:28:39;;;;;;;0.15;0.15;;;16.90;99.90;;;;;;5016804;28;20088;-70
2023/07/19 05:31:08;;;;;;;0.00;0.00;;;16.90;99.90;;;;;;5026829;28;20089;-69
2023/07/19 05:33:35;;;;;;;0.00;0.00;;;16.90;99.90;;;;;;5022891;28;20378;-69
2023/07/19 05:36:01;;;;;;;2.50;0.43;;;17.00;99.90;;;;;;5018312;28;20095;-69
2023/07/19 05:38:27;;;;;;;0.00;0.00;;;16.90;99.90;;;;;;5021358;28;20045;-69
2023/07/19 05:40:58;;;;;;;1.02;1.00;;;16.90;99.90;;;;;;5026664;28;20124;-69
2023/07/19 05:43:23;;;;;;;0.00;0.00;;;17.00;99.90;;;;;;5020815;28;20050;-69
2023/07/19 05:45:49;;;;;;;0.30;0.30;;;17.00;99.90;;;;;;5020097;28;20397;-69
2023/07/19 05:48:15;;;;;;;0.10;0.10;;;17.00;99.90;;;;;;5021351;28;20045;-69
2023/07/19 05:50:40;;;;;;;0.00;0.00;;;17.10;99.90;;;;;;5025791;28;20045;-69
2023/07/19 05:53:06;;;;;;;0.30;0.30;;;17.00;99.90;;;;;;5016782;28;20127;-69
2023/07/19 05:55:31;;;;;;;0.00;0.00;;;17.10;99.90;;;;;;5022565;28;20041;-69
2023/07/19 05:57:57;;;;;;;0.75;0.57;;;17.10;99.90;;;;;;5019377;28;20045;-69
2023/07/19 06:00:24;;;;;;;0.20;0.20;;;17.10;99.90;;;;;;5021348;28;20085;-69
2023/07/19 06:02:54;;;;;;;1.00;0.80;;;17.10;99.90;;;;;;5025059;28;20064;-69
2023/07/19 06:05:20;;;;;;;0.10;0.10;;;17.10;99.90;;;;;;5015372;28;20512;-70
2023/07/19 06:07:46;;;;;;;0.00;0.00;;;17.20;99.90;;;;;;5016472;28;20041;-70
2023/07/19 06:10:13;;;;;;;0.00;0.00;;;17.20;99.90;;;;;;5014960;28;20038;-69
2023/07/19 06:12:42;;;;;;;0.10;0.10;;;17.20;99.90;;;;;;5025836;28;20129;-69
2023/07/19 06:15:08;;;;;;;0.00;0.00;;;17.20;99.90;;;;;;5019542;28;20048;-70
2023/07/19 06:17:33;;;;;;;0.00;0.00;;;17.20;99.90;;;;;;5021590;28;20061;-70
2023/07/19 06:19:59;;;;;;;0.00;0.00;;;17.20;99.90;;;;;;5016847;28;20045;-70
2023/07/19 06:22:25;;;;;;;0.30;0.30;;;17.30;99.90;;;;;;5018229;28;20092;-70
2023/07/19 06:24:51;;;;;;;0.00;0.00;;;17.30;99.90;;;;;;5020148;28;20060;-70
2023/07/19 06:27:16;;;;;;;2.03;1.85;;;17.30;99.90;;;;;;5021877;28;20087;-70
2023/07/19 06:29:45;;;;;;;0.00;0.00;;;17.30;99.90;;;;;;5024951;28;20064;-70
2023/07/19 06:32:10;;;;;;;0.00;0.00;;;17.40;99.90;;;;;;5023373;28;20042;-70
2023/07/19 06:34:36;;;;;;;0.15;0.15;;;17.40;99.90;;;;;;5013283;28;20053;-70
2023/07/19 06:37:02;;;;;;;0.00;0.00;;;17.50;99.90;;;;;;5020052;28;20119;-69
2023/07/19 06:39:28;;;;;;;0.00;0.00;;;17.50;99.90;;;;;;5025934;28;20041;-69
2023/07/19 06:41:54;;;;;;;0.00;0.00;;;17.50;99.90;;;;;;5025874;28;20049;-70
2023/07/19 06:44:20;;;;;;;0.00;0.00;;;17.60;99.90;;;;;;5019974;28;20038;-70
2023/07/19 06:46:45;;;;;;;0.00;0.00;;;17.60;99.90;;;;;;5018659;28;20038;-70
2023/07/19 06:49:11;;;;;;;0.00;0.00;;;17.60;99.90;;;;;;5026824;28;20042;-69
2023/07/19 06:51:37;;;;;;;0.00;0.00;;;17.60;99.90;;;;;;5021235;28;20103;-70
2023/07/19 06:54:02;;;;;;;0.00;0.00;;;17.70;99.90;;;;;;5030526;28;20099;-70
2023/07/19 06:56:28;;;;;;;0.00;0.00;;;17.70;99.90;;;;;;5020734;28;20108;-69
2023/07/19 06:58:54;;;;;;;1.77;0.43;;;17.70;99.90;;;;;;5026209;28;20045;-69
2023/07/19 07:01:19;;;;;;;0.00;0.00;;;17.80;99.90;;;;;;5023258;28;20087;-69
2023/07/19 07:03:45;;;;;;;0.00;0.00;;;17.90;99.90;;;;;;5023023;28;20128;-70
2023/07/19 07:06:11;;;;;;;0.00;0.00;;;17.80;99.90;;;;;;5025004;28;20041;-69
2023/07/19 07:08:36;;;;;;;0.10;0.10;;;17.90;99.90;;;;;;5027845;28;20128;-69
2023/07/19 07:11:04;;;;;;;0.00;0.00;;;17.90;99.90;;;;;;5029443;28;20428;-69
2023/07/19 07:13:30;;;;;;;0.00;0.00;;;18.00;99.90;;;;;;5028997;28;20060;-69
2023/07/19 07:15:57;;;;;;;0.00;0.00;;;18.10;99.90;;;;;;5023386;28;20050;-69
2023/07/19 07:18:23;;;;;;;0.00;0.00;;;18.20;99.90;;;;;;5030961;28;20038;-69
2023/07/19 07:20:51;;;;;;;0.00;0.00;;;18.20;99.90;;;;;;5023289;28;20044;-69
2023/07/19 07:23:17;;;;;;;0.00;0.00;;;18.20;99.90;;;;;;5024814;28;20049;-69
2023/07/19 07:25:43;;;;;;;0.00;0.00;;;18.30;99.90;;;;;;5015057;28;20160;-69
2023/07/19 07:28:08;;;;;;;0.28;0.05;;;18.40;99.90;;;;;;5022266;28;20041;-69
2023/07/19 07:30:36;;;;;;;0.00;0.00;;;18.50;99.90;;;;;;5027957;28;20045;-69
2023/07/19 07:33:02;;;;;;;0.00;0.00;;;18.60;99.90;;;;;;5018431;28;20045;-69
2023/07/19 07:35:28;;;;;;;0.88;0.75;;;18.60;99.90;;;;;;5027975;28;20045;-69
2023/07/19 07:37:54;;;;;;;0.50;0.50;;;18.60;99.90;;;;;;5037795;28;20045;-69
2023/07/19 07:40:19;;;;;;;0.00;0.00;;;18.60;99.90;;;;;;5024761;28;20459;-70
2023/07/19 07:42:45;;;;;;;0.00;0.00;;;18.60;99.90;;;;;;5018240;28;20037;-69
2023/07/19 07:45:11;;;;;;;2.28;2.05;;;18.50;99.90;;;;;;5021129;28;20149;-70
2023/07/19 07:47:36;;;;;;;0.10;0.10;;;18.50;99.90;;;;;;5025954;28;20115;-69
2023/07/19 07:50:04;;;;;;;0.00;0.00;;;18.40;99.90;;;;;;5020114;28;20048;-69
2023/07/19 07:52:30;;;;;;;0.00;0.00;;;18.40;99.90;;;;;;5024237;28;20049;-69
2023/07/19 07:54:56;;;;;;;0.00;0.00;;;18.30;99.90;;;;;;5024679;28;20485;-69
2023/07/19 07:57:21;;;;;;;0.10;0.10;;;18.30;99.90;;;;;;5021399;28;20045;-69
2023/07/19 07:59:47;;;;;;;0.00;0.00;;;18.40;99.90;;;;;;5024928;28;20052;-69
2023/07/19 08:02:13;;;;;;;0.95;0.75;;;18.40;99.90;;;;;;5027215;28;20053;-69
2023/07/19 08:04:38;;;;;;;0.00;0.00;;;18.50;99.90;;;;;;5012727;28;20505;-69
2023/07/19 08:07:04;;;;;;;0.20;0.20;;;18.80;99.90;;;;;;5021976;28;20045;-69
2023/07/19 08:09:29;;;;;;;0.00;0.00;;;18.90;99.90;;;;;;5029378;28;20112;-69
2023/07/19 08:11:55;;;;;;;0.00;0.00;;;19.00;99.90;;;;;;5017034;28;20057;-69
2023/07/19 08:14:21;;;;;;;0.00;0.00;;;18.90;99.90;;;;;;5026588;28;20492;-69
2023/07/19 08:16:49;;;;;;;0.00;0.00;;;18.90;99.90;;;;;;5021206;28;20092;-69
2023/07/19 08:19:15;;;;;;;0.00;0.00;;;18.90;99.90;;;;;;5021246;28;20389;-69
2023/07/19 08:21:40;;;;;;;0.00;0.00;;;19.10;99.90;;;;;;5018656;28;20034;-69
2023/07/19 08:24:06;;;;;;;0.00;0.00;;;19.10;99.90;;;;;;5023839;28;20062;-69
2023/07/19 08:26:32;;;;;;;0.45;0.32;;;19.10;99.90;;;;;;5023671;28;20052;-69
2023/07/19 08:28:57;;;;;;;0.00;0.00;;;19.10;99.90;;;;;;5022235;28;20034;-68
2023/07/19 08:31:23;;;;;;;0.20;0.20;;;19.00;99.90;;;;;;5022612;28;20046;-69
2023/07/19 08:33:49;;;;;;;0.10;0.10;;;18.90;99.90;;;;;;5024355;28;20045;-68
2023/07/19 08:36:14;;;;;;;0.10;0.10;;;19.00;99.90;;;;;;5027080;28;20060;-69
2023/07/19 08:38:40;;;;;;;0.00;0.00;;;18.90;99.90;;;;;;5019141;28;20429;-69
2023/07/19 08:41:06;;;;;;;7.03;0.55;;;18.90;99.90;;;;;;5022282;28;20501;-69
2023/07/19 08:43:35;;;;;;;0.00;0.00;;;19.00;99.90;;;;;;5023750;28;20465;-69
2023/07/19 08:46:02;;;;;;;0.00;0.00;;;19.00;99.90;;;;;;5018178;28;20041;-69
2023/07/19 08:48:28;;;;;;;0.00;0.00;;;19.00;99.90;;;;;;5014125;28;20429;-69
2023/07/19 08:50:59;;;;;;;0.00;0.00;;;19.10;99.90;;;;;;5019501;28;20080;-67
2023/07/19 08:53:26;;;;;;;0.00;0.00;;;19.10;99.90;;;;;;5023105;28;20053;-69
2023/07/19 08:55:52;;;;;;;0.20;0.20;;;19.10;99.90;;;;;;5020784;28;20050;-69
2023/07/19 08:58:18;;;;;;;0.10;0.10;;;19.20;99.90;;;;;;5024681;28;20136;-69
2023/07/19 09:00:49;;;;;;;0.13;0.13;;;19.30;99.90;;;;;;5028602;28;20048;-69
2023/07/19 09:03:15;;;;;;;0.00;0.00;;;19.30;99.90;;;;;;5021787;28;20049;-69
2023/07/19 09:05:41;;;;;;;0.00;0.00;;;19.30;99.90;;;;;;5023989;28;20041;-69
2023/07/19 09:08:09;;;;;;;0.47;0.32;;;19.20;99.90;;;;;;5020897;28;20180;-69
2023/07/19 09:10:35;;;;;;;0.00;0.00;;;19.10;99.90;;;;;;5026362;28;20124;-69
2023/07/19 09:13:05;;;;;;;0.00;0.00;;;19.00;99.90;;;;;;5027004;28;20037;-69
2023/07/19 09:15:33;;;;;;;0.00;0.00;;;19.10;99.90;;;;;;5011120;28;20053;-69
2023/07/19 09:18:01;;;;;;;0.00;0.00;;;19.30;99.90;;;;;;5015385;28;20045;-69
2023/07/19 09:20:28;;;;;;;0.00;0.00;;;19.40;99.90;;;;;;5023083;28;20077;-69
2023/07/19 09:22:56;;;;;;;0.17;0.17;;;19.60;99.90;;;;;;5024339;28;20116;-69
2023/07/19 09:25:22;;;;;;;1.55;0.40;;;19.70;99.90;;;;;;5024276;28;20133;-69
2023/07/19 09:27:48;;;;;;;0.00;0.00;;;19.70;99.90;;;;;;5017058;28;20467;-68
2023/07/19 09:30:14;;;;;;;0.00;0.00;;;19.60;99.90;;;;;;5021611;28;20042;-69
2023/07/19 09:32:40;;;;;;;0.00;0.00;;;19.60;99.90;;;;;;5031530;28;20556;-69
2023/07/19 09:35:08;;;;;;;0.00;0.00;;;19.60;99.90;;;;;;5022074;28;20042;-69
2023/07/19 09:37:34;;;;;;;0.00;0.00;;;19.70;99.90;;;;;;5023991;28;20053;-69
2023/07/19 09:40:02;;;;;;;0.55;0.30;;;19.50;99.90;;;;;;5014831;28;20034;-69
2023/07/19 09:42:30;;;;;;;0.10;0.10;;;19.40;99.90;;;;;;5021398;28;20072;-69
2023/07/19 09:44:59;;;;;;;0.30;0.30;;;19.40;99.90;;;;;;5013780;28;20045;-69
2023/07/19 09:47:25;;;;;;;0.03;0.03;;;19.30;99.90;;;;;;5015626;28;20450;-69
2023/07/19 09:49:51;;;;;;;0.00;0.00;;;19.20;99.90;;;;;;5022364;28;20042;-69
2023/07/19 09:52:18;;;;;;;0.90;0.45;;;19.30;99.90;;;;;;5021730;28;20444;-69
2023/07/19 09:54:44;;;;;;;0.38;0.10;;;19.60;99.90;;;;;;5018703;28;20103;-69
2023/07/19 09:57:11;;;;;;;0.32;0.32;;;20.20;99.90;;;;;;5017951;28;20049;-69
2023/07/19 09:59:43;;;;;;;0.00;0.00;;;20.50;99.90;;;;;;5017152;28;20038;-69
2023/07/19 10:02:10;;;;;;;0.00;0.00;;;20.50;99.90;;;;;;5019128;28;20048;-68
2023/07/19 10:04:37;;;;;;;0.20;0.20;;;20.10;99.90;;;;;;5030237;28;20436;-69
2023/07/19 10:07:11;;;;;;;0.00;0.00;;;20.00;99.90;;;;;;5023104;28;20048;-69
2023/07/19 10:09:41;;;;;;;0.00;0.00;;;19.90;99.90;;;;;;5025322;28;20141;-69
2023/07/19 10:12:28;;;;;;;0.00;0.00;;;20.00;99.90;;;;;;5020177;28;20053;-69
2023/07/19 10:15:00;;;;;;;0.00;0.00;;;20.70;99.90;;;;;;5016771;28;20111;-69
2023/07/19 10:17:27;;;;;;;0.00;0.00;;;21.30;99.90;;;;;;5020462;28;20041;-69
2023/07/19 10:20:06;;;;;;;0.20;0.17;;;21.70;99.90;;;;;;5020617;28;20450;-69
2023/07/19 10:22:57;;;;;;;0.00;0.00;;;21.90;99.90;;;;;;5023010;28;20053;-69
2023/07/19 10:25:36;;;;;;;0.00;0.00;;;21.80;99.90;;;;;;5018399;28;20093;-68
2023/07/19 10:28:08;;;;;;;0.00;0.00;;;21.70;99.90;;;;;;5018836;28;20041;-69
2023/07/19 10:30:46;;;;;;;0.00;0.00;;;21.60;99.90;;;;;;5015058;28;20095;-68
2023/07/19 10:33:13;;;;;;;0.00;0.00;;;21.90;99.90;;;;;;5014978;28;20054;-69
2023/07/19 10:35:39;;;;;;;0.00;0.00;;;21.70;99.90;;;;;;5027924;28;20045;-69
2023/07/19 10:38:05;;;;;;;0.00;0.00;;;21.70;99.90;;;;;;5022911;28;20049;-69
2023/07/19 10:40:31;;;;;;;0.28;0.28;;;22.00;99.90;;;;;;5016692;28;20046;-69
2023/07/19 10:42:56;;;;;;;0.00;0.00;;;21.90;99.90;;;;;;5018505;28;20120;-69
2023/07/19 10:45:25;;;;;;;0.05;0.05;;;21.70;99.90;;;;;;5024040;28;20084;-69
2023/07/19 10:47:51;;;;;;;0.00;0.00;;;21.90;99.90;;;;;;5020591;28;20054;-68
2023/07/19 10:50:17;;;;;;;0.00;0.00;;;21.90;99.90;;;;;;5023516;28;20050;-68
2023/07/19 10:52:46;;;;;;;0.00;0.00;;;21.60;99.90;;;;;;5019014;28;20571;-68
2023/07/19 10:55:13;;;;;;;7.32;0.45;;;21.40;99.90;;;;;;5023399;28;20065;-69
2023/07/19 10:57:39;;;;;;;0.00;0.00;;;21.20;99.90;;;;;;5027506;28;20096;-69
2023/07/19 11:00:10;;;;;;;0.00;0.00;;;21.30;99.90;;;;;;5027903;28;20136;-68
2023/07/19 11:02:36;;;;;;;0.00;0.00;;;21.10;99.90;;;;;;5019617;28;20057;-68
2023/07/19 11:05:02;;;;;;;0.00;0.00;;;21.00;99.90;;;;;;5023897;28;20045;-68
2023/07/19 11:07:34;;;;;;;0.20;0.20;;;20.80;99.90;;;;;;5019100;28;20087;-68
2023/07/19 11:10:01;;;;;;;0.00;0.00;;;20.60;99.90;;;;;;5026661;28;20124;-68
2023/07/19 11:12:27;;;;;;;0.00;0.00;;;20.90;99.90;;;;;;5025640;28;20087;-68
2023/07/19 11:14:58;;;;;;;0.00;0.00;;;21.40;99.90;;;;;;5022135;28;20038;-69
2023/07/19 11:17:29;;;;;;;0.30;0.30;;;21.10;99.90;;;;;;5021221;28;20049;-69
2023/07/19 11:19:58;;;;;;;0.00;0.00;;;20.90;99.90;;;;;;5023256;28;20136;-68
2023/07/19 11:22:25;;;;;;;0.00;0.00;;;21.40;99.90;;;;;;5023667;28;20595;-69
2023/07/19 11:24:53;;;;;;;0.00;0.00;;;21.30;99.90;;;;;;5022953;28;20110;-67
2023/07/19 11:27:32;;;;;;;0.00;0.00;;;21.60;99.90;;;;;;5020175;28;20168;-69
2023/07/19 11:29:57;;;;;;;0.00;0.00;;;22.10;99.90;;;;;;5023054;28;20065;-69
2023/07/19 11:32:23;;;;;;;0.15;0.15;;;22.40;99.90;;;;;;5030642;28;20087;-69
2023/07/19 11:34:56;;;;;;;0.00;0.00;;;22.50;99.90;;;;;;5022736;28;20050;-69
2023/07/19 11:37:26;;;;;;;;;;;22.60;99.90;;;;;;5024496;28;20062;-69
2023/07/19 11:39:53;;;;;;;0.00;0.00;;;22.30;99.90;;;;;;5029384;28;19971;-69
2023/07/19 11:42:46;;;;;;;0.00;0.00;;;22.00;99.90;;;;;;5022821;28;20510;-69
2023/07/19 11:45:16;;;;;;;0.00;0.00;;;22.60;99.90;;;;;;5013838;28;20083;-69
2023/07/19 11:47:45;;;;;;;1.08;0.38;;;22.80;99.90;;;;;;5016761;28;20046;-69
2023/07/19 11:50:12;;;;;;;0.00;0.00;;;23.00;99.90;;;;;;5023659;28;20523;-69
2023/07/19 11:52:47;;;;;;;0.00;0.00;;;23.10;99.90;;;;;;5018408;28;20045;-69
2023/07/19 11:55:14;;;;;;;0.30;0.30;;;23.30;99.90;;;;;;5024334;28;20129;-69
2023/07/19 11:57:41;;;;;;;0.00;0.00;;;23.10;99.90;;;;;;5021839;28;20503;-68
2023/07/19 12:00:08;;;;;;;0.10;0.10;;;23.10;99.90;;;;;;5025810;28;20129;-68
2023/07/19 12:02:35;;;;;;;0.00;0.00;;;23.20;99.90;;;;;;5029544;28;20144;-68
2023/07/19 12:05:03;;;;;;;0.00;0.00;;;23.10;99.90;;;;;;5025063;28;20055;-68
2023/07/19 12:07:29;;;;;;;0.00;0.00;;;23.20;99.90;;;;;;5024241;28;20051;-67
2023/07/19 12:09:55;;;;;;;0.30;0.30;;;23.40;99.90;;;;;;5023037;28;20049;-69
2023/07/19 12:12:20;;;;;;;0.00;0.00;;;23.50;99.90;;;;;;5020334;28;20148;-67
2023/07/19 12:14:46;;;;;;;0.00;0.00;;;22.90;99.90;;;;;;5015911;28;20053;-68
2023/07/19 12:17:12;;;;;;;0.00;0.00;;;23.60;99.90;;;;;;5019495;28;20049;-68
2023/07/19 12:19:37;;;;;;;0.10;0.10;;;23.60;99.90;;;;;;5019285;28;20045;-68
2023/07/19 12:22:04;;;;;;;0.00;0.00;;;23.10;99.90;;;;;;5021597;28;20092;-69
2023/07/19 12:24:29;;;;;;;0.00;0.00;;;22.80;99.90;;;;;;5019225;28;20490;-68
2023/07/19 12:26:55;;;;;;;0.00;0.00;;;22.90;99.90;;;;;;5024816;28;20056;-68
2023/07/19 12:29:21;;;;;;;0.00;0.00;;;23.60;99.90;;;;;;5030715;28;20053;-68
2023/07/19 12:31:46;;;;;;;0.10;0.10;;;23.70;99.90;;;;;;5019150;28;20048;-68
2023/07/19 12:34:12;;;;;;;0.00;0.00;;;24.10;99.90;;;;;;5024303;28;20147;-68
2023/07/19 12:36:38;;;;;;;0.00;0.00;;;23.50;99.90;;;;;;5028736;28;20393;-68
2023/07/19 12:39:04;;;;;;;0.90;0.85;;;23.30;99.90;;;;;;5030705;28;20125;-68
2023/07/19 12:41:30;;;;;;;0.00;0.00;;;23.40;99.90;;;;;;5018605;28;20637;-68
2023/07/19 12:43:56;;;;;;;0.17;0.17;;;23.10;99.90;;;;;;5022207;28;20171;-68